Main page
METAR-TAF:

METAR-TAF

Airports :

Hawarden, Wales

Hawarden Airport

latitude: 53-10N, longitude: 002-59W, elevation: 10 m

Current weather observation

The report was made 3 hours and 34 minutes ago, at 19:50 UTC
Wind 10 kt from the Southwest
Temperature 16°C
Humidity 68%
Pressure 1008 hPa
Visibility 10 km or more
no clouds below 1500 m and no cumulonimbus

METAR: EGNR 171950Z 22010KT CAVOK 16/10 Q1008

Time: 00:24 (23:24 UTC)

Forecast

The report was made 6 hours and 22 minutes ago, at 17:02 UTC
Forecast valid from 17 at 18 UTC to 17 at 20 UTC
Wind 12 kt from the Southwest
Visibility 10 km or more
Few clouds at a height of 2500 ft

TAF: EGNR 171702Z 1718/1720 22012KT 9999 FEW025

Weather observations and forecasts of more than 4000 airports (METAR and TAF reports).

The available stations are represented by yellow and red dots on the map.

Hover mouse over dot to see the name of the station.

Then click to see weather observations and forecasts.

To change the map : click on the green buttons with a black cross to zoom in, on the green button with a dash to zoom out, or on the green arrows for adjacent maps.


METAR-TAF: